sensor_id;sensor_type;location;lat;lon;timestamp;P1;durP1;ratioP1;P2;durP2;ratioP2
57025;SDS011;43961;52.940;6.834;2023-11-18T00:00:25;0.52;;;0.52;;
57025;SDS011;43961;52.940;6.834;2023-11-18T00:02:50;0.55;;;0.55;;
57025;SDS011;43961;52.940;6.834;2023-11-18T00:05:16;0.98;;;0.80;;
57025;SDS011;43961;52.940;6.834;2023-11-18T00:07:42;0.65;;;0.63;;
57025;SDS011;43961;52.940;6.834;2023-11-18T00:10:09;0.70;;;0.70;;
57025;SDS011;43961;52.940;6.834;2023-11-18T00:12:35;3.60;;;1.23;;
57025;SDS011;43961;52.940;6.834;2023-11-18T00:15:02;0.47;;;0.47;;
57025;SDS011;43961;52.940;6.834;2023-11-18T00:17:32;0.95;;;0.45;;
57025;SDS011;43961;52.940;6.834;2023-11-18T00:19:59;0.85;;;0.85;;
57025;SDS011;43961;52.940;6.834;2023-11-18T00:22:25;0.65;;;0.65;;
57025;SDS011;43961;52.940;6.834;2023-11-18T00:24:53;2.60;;;1.20;;
57025;SDS011;43961;52.940;6.834;2023-11-18T00:27:20;1.00;;;0.85;;
57025;SDS011;43961;52.940;6.834;2023-11-18T00:29:48;1.00;;;1.00;;
57025;SDS011;43961;52.940;6.834;2023-11-18T00:32:13;1.13;;;1.13;;
57025;SDS011;43961;52.940;6.834;2023-11-18T00:34:39;0.63;;;0.50;;
57025;SDS011;43961;52.940;6.834;2023-11-18T00:37:05;1.02;;;0.65;;
57025;SDS011;43961;52.940;6.834;2023-11-18T00:39:30;1.05;;;0.82;;
57025;SDS011;43961;52.940;6.834;2023-11-18T00:41:56;0.55;;;0.55;;
57025;SDS011;43961;52.940;6.834;2023-11-18T00:44:22;0.50;;;0.50;;
57025;SDS011;43961;52.940;6.834;2023-11-18T00:46:47;0.73;;;0.73;;
57025;SDS011;43961;52.940;6.834;2023-11-18T00:49:13;0.77;;;0.77;;
57025;SDS011;43961;52.940;6.834;2023-11-18T00:51:39;1.33;;;1.00;;
57025;SDS011;43961;52.940;6.834;2023-11-18T00:54:06;0.60;;;0.60;;
57025;SDS011;43961;52.940;6.834;2023-11-18T00:56:32;1.05;;;0.63;;
57025;SDS011;43961;52.940;6.834;2023-11-18T00:58:58;0.40;;;0.40;;
57025;SDS011;43961;52.940;6.834;2023-11-18T01:01:24;0.80;;;0.80;;
57025;SDS011;43961;52.940;6.834;2023-11-18T01:03:49;0.50;;;0.50;;
57025;SDS011;43961;52.940;6.834;2023-11-18T01:06:15;0.63;;;0.63;;
57025;SDS011;43961;52.940;6.834;2023-11-18T01:08:44;0.80;;;0.80;;
57025;SDS011;43961;52.940;6.834;2023-11-18T01:11:16;0.70;;;0.70;;
57025;SDS011;43961;52.940;6.834;2023-11-18T01:13:46;0.98;;;0.98;;
57025;SDS011;43961;52.940;6.834;2023-11-18T01:16:12;0.40;;;0.40;;
57025;SDS011;43961;52.940;6.834;2023-11-18T01:18:39;0.70;;;0.70;;
57025;SDS011;43961;52.940;6.834;2023-11-18T01:21:05;0.95;;;0.95;;
57025;SDS011;43961;52.940;6.834;2023-11-18T01:23:34;1.10;;;1.05;;
57025;SDS011;43961;52.940;6.834;2023-11-18T01:26:06;0.60;;;0.60;;
57025;SDS011;43961;52.940;6.834;2023-11-18T01:28:36;1.33;;;1.23;;
57025;SDS011;43961;52.940;6.834;2023-11-18T01:31:04;0.35;;;0.35;;
57025;SDS011;43961;52.940;6.834;2023-11-18T01:33:30;0.60;;;0.60;;
57025;SDS011;43961;52.940;6.834;2023-11-18T01:35:57;0.50;;;0.50;;
57025;SDS011;43961;52.940;6.834;2023-11-18T01:38:23;1.00;;;1.00;;
57025;SDS011;43961;52.940;6.834;2023-11-18T01:40:51;0.65;;;0.65;;
57025;SDS011;43961;52.940;6.834;2023-11-18T01:43:18;0.88;;;0.88;;
57025;SDS011;43961;52.940;6.834;2023-11-18T01:45:44;0.40;;;0.40;;
57025;SDS011;43961;52.940;6.834;2023-11-18T01:48:09;0.70;;;0.70;;
57025;SDS011;43961;52.940;6.834;2023-11-18T01:50:36;1.05;;;1.05;;
57025;SDS011;43961;52.940;6.834;2023-11-18T01:53:03;0.75;;;0.75;;
57025;SDS011;43961;52.940;6.834;2023-11-18T01:55:30;1.10;;;1.10;;
57025;SDS011;43961;52.940;6.834;2023-11-18T01:58:02;0.63;;;0.63;;
57025;SDS011;43961;52.940;6.834;2023-11-18T02:00:36;0.82;;;0.82;;
57025;SDS011;43961;52.940;6.834;2023-11-18T02:03:05;0.73;;;0.73;;
57025;SDS011;43961;52.940;6.834;2023-11-18T02:05:31;1.40;;;1.08;;
57025;SDS011;43961;52.940;6.834;2023-11-18T02:08:03;3.80;;;1.10;;
57025;SDS011;43961;52.940;6.834;2023-11-18T02:10:30;0.82;;;0.82;;
57025;SDS011;43961;52.940;6.834;2023-11-18T02:13:42;0.60;;;0.60;;
57025;SDS011;43961;52.940;6.834;2023-11-18T02:15:55;0.73;;;0.73;;
57025;SDS011;43961;52.940;6.834;2023-11-18T02:18:23;1.45;;;1.15;;
57025;SDS011;43961;52.940;6.834;2023-11-18T02:20:51;0.60;;;0.60;;
57025;SDS011;43961;52.940;6.834;2023-11-18T02:25:47;0.40;;;0.40;;
57025;SDS011;43961;52.940;6.834;2023-11-18T02:28:14;0.30;;;0.30;;
57025;SDS011;43961;52.940;6.834;2023-11-18T02:30:40;0.95;;;0.95;;
57025;SDS011;43961;52.940;6.834;2023-11-18T02:33:11;0.82;;;0.82;;
57025;SDS011;43961;52.940;6.834;2023-11-18T02:35:52;0.55;;;0.55;;
57025;SDS011;43961;52.940;6.834;2023-11-18T02:38:26;1.45;;;1.20;;
57025;SDS011;43961;52.940;6.834;2023-11-18T02:41:02;0.40;;;0.40;;
57025;SDS011;43961;52.940;6.834;2023-11-18T02:43:34;1.05;;;0.95;;
57025;SDS011;43961;52.940;6.834;2023-11-18T02:46:04;0.70;;;0.70;;
57025;SDS011;43961;52.940;6.834;2023-11-18T02:48:32;0.50;;;0.50;;
57025;SDS011;43961;52.940;6.834;2023-11-18T02:50:58;0.68;;;0.68;;
57025;SDS011;43961;52.940;6.834;2023-11-18T02:53:24;0.85;;;0.85;;
57025;SDS011;43961;52.940;6.834;2023-11-18T02:55:50;0.45;;;0.45;;
57025;SDS011;43961;52.940;6.834;2023-11-18T02:58:19;0.70;;;0.70;;
57025;SDS011;43961;52.940;6.834;2023-11-18T03:00:45;0.60;;;0.60;;
57025;SDS011;43961;52.940;6.834;2023-11-18T03:03:12;0.43;;;0.43;;
57025;SDS011;43961;52.940;6.834;2023-11-18T03:05:39;0.93;;;0.93;;
57025;SDS011;43961;52.940;6.834;2023-11-18T03:08:04;0.55;;;0.55;;
57025;SDS011;43961;52.940;6.834;2023-11-18T03:10:33;1.33;;;1.23;;
57025;SDS011;43961;52.940;6.834;2023-11-18T03:13:00;0.63;;;0.63;;
57025;SDS011;43961;52.940;6.834;2023-11-18T03:15:26;0.60;;;0.60;;
57025;SDS011;43961;52.940;6.834;2023-11-18T03:17:53;1.20;;;1.20;;
57025;SDS011;43961;52.940;6.834;2023-11-18T03:20:20;0.82;;;0.82;;
57025;SDS011;43961;52.940;6.834;2023-11-18T03:22:48;1.55;;;1.05;;
57025;SDS011;43961;52.940;6.834;2023-11-18T03:25:19;0.60;;;0.60;;
57025;SDS011;43961;52.940;6.834;2023-11-18T03:27:47;0.50;;;0.50;;
57025;SDS011;43961;52.940;6.834;2023-11-18T03:30:12;0.85;;;0.85;;
57025;SDS011;43961;52.940;6.834;2023-11-18T03:32:38;1.23;;;1.05;;
57025;SDS011;43961;52.940;6.834;2023-11-18T03:35:05;0.85;;;0.85;;
57025;SDS011;43961;52.940;6.834;2023-11-18T03:40:09;0.90;;;0.77;;
57025;SDS011;43961;52.940;6.834;2023-11-18T03:42:39;0.98;;;0.98;;
57025;SDS011;43961;52.940;6.834;2023-11-18T03:45:11;1.10;;;1.10;;
57025;SDS011;43961;52.940;6.834;2023-11-18T03:47:37;0.60;;;0.60;;
57025;SDS011;43961;52.940;6.834;2023-11-18T03:50:03;0.98;;;0.98;;
57025;SDS011;43961;52.940;6.834;2023-11-18T03:52:30;0.70;;;0.70;;
57025;SDS011;43961;52.940;6.834;2023-11-18T03:54:55;0.60;;;0.60;;
57025;SDS011;43961;52.940;6.834;2023-11-18T03:57:21;0.95;;;0.95;;
57025;SDS011;43961;52.940;6.834;2023-11-18T03:59:47;1.10;;;0.98;;
57025;SDS011;43961;52.940;6.834;2023-11-18T04:02:13;1.45;;;1.30;;
57025;SDS011;43961;52.940;6.834;2023-11-18T04:04:38;0.50;;;0.50;;
57025;SDS011;43961;52.940;6.834;2023-11-18T04:07:04;0.55;;;0.55;;
57025;SDS011;43961;52.940;6.834;2023-11-18T04:09:31;0.95;;;0.95;;
57025;SDS011;43961;52.940;6.834;2023-11-18T04:11:58;0.70;;;0.70;;
57025;SDS011;43961;52.940;6.834;2023-11-18T04:14:24;0.70;;;0.70;;
57025;SDS011;43961;52.940;6.834;2023-11-18T04:16:50;1.65;;;0.40;;
57025;SDS011;43961;52.940;6.834;2023-11-18T04:19:17;0.55;;;0.55;;
57025;SDS011;43961;52.940;6.834;2023-11-18T04:21:43;1.77;;;1.65;;
57025;SDS011;43961;52.940;6.834;2023-11-18T04:24:12;1.02;;;1.00;;
57025;SDS011;43961;52.940;6.834;2023-11-18T04:26:38;0.95;;;0.82;;
57025;SDS011;43961;52.940;6.834;2023-11-18T04:29:04;0.70;;;0.70;;
57025;SDS011;43961;52.940;6.834;2023-11-18T04:31:30;0.80;;;0.80;;
57025;SDS011;43961;52.940;6.834;2023-11-18T04:33:56;1.23;;;1.23;;
57025;SDS011;43961;52.940;6.834;2023-11-18T04:36:22;1.15;;;1.15;;
57025;SDS011;43961;52.940;6.834;2023-11-18T04:38:47;2.38;;;1.48;;
57025;SDS011;43961;52.940;6.834;2023-11-18T04:41:13;2.92;;;1.30;;
57025;SDS011;43961;52.940;6.834;2023-11-18T04:43:40;0.77;;;0.77;;
57025;SDS011;43961;52.940;6.834;2023-11-18T04:46:06;1.90;;;1.13;;
57025;SDS011;43961;52.940;6.834;2023-11-18T04:48:33;6.75;;;1.15;;
57025;SDS011;43961;52.940;6.834;2023-11-18T04:50:59;1.08;;;1.02;;
57025;SDS011;43961;52.940;6.834;2023-11-18T04:53:25;0.98;;;0.98;;
57025;SDS011;43961;52.940;6.834;2023-11-18T04:55:51;1.10;;;1.05;;
57025;SDS011;43961;52.940;6.834;2023-11-18T04:58:18;0.77;;;0.77;;
57025;SDS011;43961;52.940;6.834;2023-11-18T05:00:44;1.52;;;1.15;;
57025;SDS011;43961;52.940;6.834;2023-11-18T05:03:10;1.15;;;1.13;;
57025;SDS011;43961;52.940;6.834;2023-11-18T05:05:39;0.63;;;0.63;;
57025;SDS011;43961;52.940;6.834;2023-11-18T05:08:05;1.08;;;1.08;;
57025;SDS011;43961;52.940;6.834;2023-11-18T05:10:34;0.60;;;0.60;;
57025;SDS011;43961;52.940;6.834;2023-11-18T05:13:01;1.15;;;1.15;;
57025;SDS011;43961;52.940;6.834;2023-11-18T05:15:27;0.60;;;0.60;;
57025;SDS011;43961;52.940;6.834;2023-11-18T05:17:54;0.73;;;0.73;;
57025;SDS011;43961;52.940;6.834;2023-11-18T05:20:20;0.80;;;0.80;;
57025;SDS011;43961;52.940;6.834;2023-11-18T05:22:47;1.15;;;1.15;;
57025;SDS011;43961;52.940;6.834;2023-11-18T05:25:13;0.95;;;0.95;;
57025;SDS011;43961;52.940;6.834;2023-11-18T05:27:40;1.33;;;1.25;;
57025;SDS011;43961;52.940;6.834;2023-11-18T05:30:06;0.82;;;0.82;;
57025;SDS011;43961;52.940;6.834;2023-11-18T05:32:36;0.80;;;0.80;;
57025;SDS011;43961;52.940;6.834;2023-11-18T05:35:02;2.92;;;1.92;;
57025;SDS011;43961;52.940;6.834;2023-11-18T05:37:30;1.50;;;1.40;;
57025;SDS011;43961;52.940;6.834;2023-11-18T05:40:00;2.33;;;1.38;;
57025;SDS011;43961;52.940;6.834;2023-11-18T05:42:31;3.85;;;1.83;;
57025;SDS011;43961;52.940;6.834;2023-11-18T05:45:03;1.55;;;1.20;;
57025;SDS011;43961;52.940;6.834;2023-11-18T05:49:59;2.45;;;1.45;;
57025;SDS011;43961;52.940;6.834;2023-11-18T05:52:25;2.67;;;1.50;;
57025;SDS011;43961;52.940;6.834;2023-11-18T05:54:52;2.45;;;2.08;;
57025;SDS011;43961;52.940;6.834;2023-11-18T05:57:18;2.08;;;1.63;;
57025;SDS011;43961;52.940;6.834;2023-11-18T05:59:44;1.50;;;1.40;;
57025;SDS011;43961;52.940;6.834;2023-11-18T06:02:13;2.05;;;1.77;;
57025;SDS011;43961;52.940;6.834;2023-11-18T06:04:45;1.35;;;1.30;;
57025;SDS011;43961;52.940;6.834;2023-11-18T06:07:10;1.43;;;1.33;;
57025;SDS011;43961;52.940;6.834;2023-11-18T06:09:39;3.13;;;1.57;;
57025;SDS011;43961;52.940;6.834;2023-11-18T06:12:09;1.85;;;1.52;;
57025;SDS011;43961;52.940;6.834;2023-11-18T06:14:36;1.90;;;1.73;;
57025;SDS011;43961;52.940;6.834;2023-11-18T06:17:02;1.95;;;1.58;;
57025;SDS011;43961;52.940;6.834;2023-11-18T06:19:29;1.23;;;1.23;;
57025;SDS011;43961;52.940;6.834;2023-11-18T06:21:55;1.85;;;1.13;;
57025;SDS011;43961;52.940;6.834;2023-11-18T06:24:20;2.50;;;1.98;;
57025;SDS011;43961;52.940;6.834;2023-11-18T06:26:47;2.05;;;1.30;;
57025;SDS011;43961;52.940;6.834;2023-11-18T06:29:14;1.63;;;1.52;;
57025;SDS011;43961;52.940;6.834;2023-11-18T06:31:41;5.25;;;2.58;;
57025;SDS011;43961;52.940;6.834;2023-11-18T06:34:07;3.03;;;2.10;;
57025;SDS011;43961;52.940;6.834;2023-11-18T06:36:34;1.48;;;1.38;;
57025;SDS011;43961;52.940;6.834;2023-11-18T06:39:00;1.58;;;1.48;;
57025;SDS011;43961;52.940;6.834;2023-11-18T06:41:26;0.75;;;0.75;;
57025;SDS011;43961;52.940;6.834;2023-11-18T06:43:58;5.18;;;4.28;;
57025;SDS011;43961;52.940;6.834;2023-11-18T06:46:35;1.05;;;1.05;;
57025;SDS011;43961;52.940;6.834;2023-11-18T06:49:02;1.55;;;1.45;;
57025;SDS011;43961;52.940;6.834;2023-11-18T06:51:29;3.75;;;2.47;;
57025;SDS011;43961;52.940;6.834;2023-11-18T06:53:58;2.17;;;2.08;;
57025;SDS011;43961;52.940;6.834;2023-11-18T06:56:27;2.85;;;2.17;;
57025;SDS011;43961;52.940;6.834;2023-11-18T06:58:53;6.90;;;3.92;;
57025;SDS011;43961;52.940;6.834;2023-11-18T07:01:19;6.20;;;2.72;;
57025;SDS011;43961;52.940;6.834;2023-11-18T07:03:45;2.20;;;2.08;;
57025;SDS011;43961;52.940;6.834;2023-11-18T07:06:19;1.67;;;1.58;;
57025;SDS011;43961;52.940;6.834;2023-11-18T07:08:48;2.33;;;1.95;;
57025;SDS011;43961;52.940;6.834;2023-11-18T07:11:15;1.60;;;1.50;;
57025;SDS011;43961;52.940;6.834;2023-11-18T07:13:42;3.17;;;2.65;;
57025;SDS011;43961;52.940;6.834;2023-11-18T07:16:08;1.92;;;1.83;;
57025;SDS011;43961;52.940;6.834;2023-11-18T07:18:37;4.80;;;1.65;;
57025;SDS011;43961;52.940;6.834;2023-11-18T07:21:03;3.20;;;2.75;;
57025;SDS011;43961;52.940;6.834;2023-11-18T07:23:33;2.88;;;2.67;;
57025;SDS011;43961;52.940;6.834;2023-11-18T07:26:00;2.33;;;1.50;;
57025;SDS011;43961;52.940;6.834;2023-11-18T07:28:26;1.90;;;1.80;;
57025;SDS011;43961;52.940;6.834;2023-11-18T07:30:52;1.23;;;1.17;;
57025;SDS011;43961;52.940;6.834;2023-11-18T07:33:19;3.10;;;2.10;;
57025;SDS011;43961;52.940;6.834;2023-11-18T07:35:47;4.25;;;3.88;;
57025;SDS011;43961;52.940;6.834;2023-11-18T07:38:13;8.00;;;2.45;;
57025;SDS011;43961;52.940;6.834;2023-11-18T07:40:45;11.77;;;4.25;;
57025;SDS011;43961;52.940;6.834;2023-11-18T07:43:12;2.83;;;2.22;;
57025;SDS011;43961;52.940;6.834;2023-11-18T07:45:39;5.97;;;2.58;;
57025;SDS011;43961;52.940;6.834;2023-11-18T07:50:34;3.08;;;2.47;;
57025;SDS011;43961;52.940;6.834;2023-11-18T07:53:05;3.30;;;2.15;;
57025;SDS011;43961;52.940;6.834;2023-11-18T07:55:32;3.95;;;1.75;;
57025;SDS011;43961;52.940;6.834;2023-11-18T07:58:07;2.60;;;2.40;;
57025;SDS011;43961;52.940;6.834;2023-11-18T08:00:42;2.65;;;2.45;;
57025;SDS011;43961;52.940;6.834;2023-11-18T08:03:10;3.47;;;3.25;;
57025;SDS011;43961;52.940;6.834;2023-11-18T08:05:40;4.13;;;1.83;;
57025;SDS011;43961;52.940;6.834;2023-11-18T08:08:10;6.10;;;2.83;;
57025;SDS011;43961;52.940;6.834;2023-11-18T08:10:38;10.10;;;3.67;;
57025;SDS011;43961;52.940;6.834;2023-11-18T08:13:09;5.57;;;3.72;;
57025;SDS011;43961;52.940;6.834;2023-11-18T08:15:39;4.85;;;3.22;;
57025;SDS011;43961;52.940;6.834;2023-11-18T08:18:06;5.05;;;3.80;;
57025;SDS011;43961;52.940;6.834;2023-11-18T08:20:32;4.60;;;3.30;;
57025;SDS011;43961;52.940;6.834;2023-11-18T08:22:58;11.05;;;7.47;;
57025;SDS011;43961;52.940;6.834;2023-11-18T08:25:24;2.95;;;2.67;;
57025;SDS011;43961;52.940;6.834;2023-11-18T08:27:51;7.95;;;3.78;;
57025;SDS011;43961;52.940;6.834;2023-11-18T08:30:16;3.83;;;2.80;;
57025;SDS011;43961;52.940;6.834;2023-11-18T08:32:43;4.93;;;3.92;;
57025;SDS011;43961;52.940;6.834;2023-11-18T08:35:11;1.60;;;1.50;;
57025;SDS011;43961;52.940;6.834;2023-11-18T08:37:40;4.93;;;3.40;;
57025;SDS011;43961;52.940;6.834;2023-11-18T08:40:07;10.03;;;5.77;;
57025;SDS011;43961;52.940;6.834;2023-11-18T08:42:46;3.25;;;2.72;;
57025;SDS011;43961;52.940;6.834;2023-11-18T08:45:18;5.18;;;2.95;;
57025;SDS011;43961;52.940;6.834;2023-11-18T08:47:47;2.75;;;2.53;;
57025;SDS011;43961;52.940;6.834;2023-11-18T08:50:17;4.60;;;3.17;;
57025;SDS011;43961;52.940;6.834;2023-11-18T08:52:43;6.65;;;2.67;;
57025;SDS011;43961;52.940;6.834;2023-11-18T08:55:12;7.40;;;3.58;;
57025;SDS011;43961;52.940;6.834;2023-11-18T08:57:49;3.55;;;3.08;;
57025;SDS011;43961;52.940;6.834;2023-11-18T09:00:38;7.68;;;3.25;;
57025;SDS011;43961;52.940;6.834;2023-11-18T09:03:26;7.20;;;5.65;;
57025;SDS011;43961;52.940;6.834;2023-11-18T09:06:02;3.17;;;2.30;;
57025;SDS011;43961;52.940;6.834;2023-11-18T09:08:30;4.55;;;4.15;;
57025;SDS011;43961;52.940;6.834;2023-11-18T09:11:08;6.25;;;4.60;;
57025;SDS011;43961;52.940;6.834;2023-11-18T09:13:41;3.83;;;3.50;;
57025;SDS011;43961;52.940;6.834;2023-11-18T09:16:08;2.53;;;2.35;;
57025;SDS011;43961;52.940;6.834;2023-11-18T09:18:34;12.68;;;4.38;;
57025;SDS011;43961;52.940;6.834;2023-11-18T09:21:04;4.85;;;4.05;;
57025;SDS011;43961;52.940;6.834;2023-11-18T09:23:32;4.20;;;3.80;;
57025;SDS011;43961;52.940;6.834;2023-11-18T09:26:03;3.90;;;3.45;;
57025;SDS011;43961;52.940;6.834;2023-11-18T09:28:32;4.45;;;3.92;;
57025;SDS011;43961;52.940;6.834;2023-11-18T09:31:00;8.20;;;3.83;;
57025;SDS011;43961;52.940;6.834;2023-11-18T09:33:28;5.40;;;4.90;;
57025;SDS011;43961;52.940;6.834;2023-11-18T09:36:08;6.75;;;4.93;;
57025;SDS011;43961;52.940;6.834;2023-11-18T09:38:38;3.47;;;3.28;;
57025;SDS011;43961;52.940;6.834;2023-11-18T09:41:08;7.13;;;5.07;;
57025;SDS011;43961;52.940;6.834;2023-11-18T09:43:39;2.80;;;2.60;;
57025;SDS011;43961;52.940;6.834;2023-11-18T09:46:10;8.60;;;3.35;;
57025;SDS011;43961;52.940;6.834;2023-11-18T09:48:47;7.38;;;3.97;;
57025;SDS011;43961;52.940;6.834;2023-11-18T09:51:24;9.70;;;3.35;;
57025;SDS011;43961;52.940;6.834;2023-11-18T09:53:55;2.22;;;2.15;;
57025;SDS011;43961;52.940;6.834;2023-11-18T09:59:11;4.00;;;3.20;;
57025;SDS011;43961;52.940;6.834;2023-11-18T10:01:44;2.45;;;2.20;;
57025;SDS011;43961;52.940;6.834;2023-11-18T10:04:25;7.80;;;4.80;;
57025;SDS011;43961;52.940;6.834;2023-11-18T10:06:57;4.22;;;3.83;;
57025;SDS011;43961;52.940;6.834;2023-11-18T10:09:26;4.95;;;2.65;;
57025;SDS011;43961;52.940;6.834;2023-11-18T10:12:06;4.40;;;4.05;;
57025;SDS011;43961;52.940;6.834;2023-11-18T10:14:36;5.20;;;4.85;;
57025;SDS011;43961;52.940;6.834;2023-11-18T10:17:05;8.52;;;3.33;;
57025;SDS011;43961;52.940;6.834;2023-11-18T10:19:53;4.32;;;3.70;;
57025;SDS011;43961;52.940;6.834;2023-11-18T10:22:26;3.25;;;2.78;;
57025;SDS011;43961;52.940;6.834;2023-11-18T10:24:54;5.68;;;3.67;;
57025;SDS011;43961;52.940;6.834;2023-11-18T10:27:25;2.28;;;1.88;;
57025;SDS011;43961;52.940;6.834;2023-11-18T10:30:04;6.93;;;5.13;;
57025;SDS011;43961;52.940;6.834;2023-11-18T10:32:31;3.10;;;2.80;;
57025;SDS011;43961;52.940;6.834;2023-11-18T10:35:01;3.00;;;2.72;;
57025;SDS011;43961;52.940;6.834;2023-11-18T10:37:30;4.55;;;4.15;;
57025;SDS011;43961;52.940;6.834;2023-11-18T10:39:56;4.32;;;3.47;;
57025;SDS011;43961;52.940;6.834;2023-11-18T10:42:26;9.35;;;3.72;;
57025;SDS011;43961;52.940;6.834;2023-11-18T10:44:59;3.85;;;3.22;;
57025;SDS011;43961;52.940;6.834;2023-11-18T10:47:33;5.50;;;4.97;;
57025;SDS011;43961;52.940;6.834;2023-11-18T10:50:03;3.25;;;2.50;;
57025;SDS011;43961;52.940;6.834;2023-11-18T10:52:30;5.50;;;4.47;;
57025;SDS011;43961;52.940;6.834;2023-11-18T10:55:00;4.70;;;3.80;;
57025;SDS011;43961;52.940;6.834;2023-11-18T10:57:32;3.58;;;3.33;;
57025;SDS011;43961;52.940;6.834;2023-11-18T11:02:31;3.15;;;2.85;;
57025;SDS011;43961;52.940;6.834;2023-11-18T11:05:11;5.65;;;2.78;;
57025;SDS011;43961;52.940;6.834;2023-11-18T11:07:44;5.25;;;3.58;;
57025;SDS011;43961;52.940;6.834;2023-11-18T11:10:10;2.03;;;1.83;;
57025;SDS011;43961;52.940;6.834;2023-11-18T11:15:30;6.50;;;4.15;;
57025;SDS011;43961;52.940;6.834;2023-11-18T11:17:58;2.65;;;2.28;;
57025;SDS011;43961;52.940;6.834;2023-11-18T11:20:34;3.25;;;3.00;;
57025;SDS011;43961;52.940;6.834;2023-11-18T11:26:06;5.53;;;5.03;;
57025;SDS011;43961;52.940;6.834;2023-11-18T11:28:53;2.83;;;2.58;;
57025;SDS011;43961;52.940;6.834;2023-11-18T11:31:37;3.75;;;3.45;;
57025;SDS011;43961;52.940;6.834;2023-11-18T11:34:09;2.88;;;2.30;;
57025;SDS011;43961;52.940;6.834;2023-11-18T11:36:48;2.67;;;2.47;;
57025;SDS011;43961;52.940;6.834;2023-11-18T11:39:16;3.67;;;3.33;;
57025;SDS011;43961;52.940;6.834;2023-11-18T11:41:50;1.98;;;1.88;;
57025;SDS011;43961;52.940;6.834;2023-11-18T11:44:17;3.20;;;2.30;;
57025;SDS011;43961;52.940;6.834;2023-11-18T11:46:46;3.33;;;3.00;;
57025;SDS011;43961;52.940;6.834;2023-11-18T11:49:18;5.18;;;3.05;;
57025;SDS011;43961;52.940;6.834;2023-11-18T11:51:54;4.10;;;3.88;;
57025;SDS011;43961;52.940;6.834;2023-11-18T11:54:40;9.63;;;4.25;;
57025;SDS011;43961;52.940;6.834;2023-11-18T11:57:11;4.18;;;3.92;;
57025;SDS011;43961;52.940;6.834;2023-11-18T12:02:14;3.72;;;3.33;;
57025;SDS011;43961;52.940;6.834;2023-11-18T12:04:49;2.22;;;2.08;;
57025;SDS011;43961;52.940;6.834;2023-11-18T12:07:19;3.58;;;2.67;;
57025;SDS011;43961;52.940;6.834;2023-11-18T12:09:48;4.15;;;2.70;;
57025;SDS011;43961;52.940;6.834;2023-11-18T12:12:22;3.55;;;3.03;;
57025;SDS011;43961;52.940;6.834;2023-11-18T12:14:53;6.45;;;2.75;;
57025;SDS011;43961;52.940;6.834;2023-11-18T12:23:07;7.97;;;4.10;;
57025;SDS011;43961;52.940;6.834;2023-11-18T12:25:48;3.20;;;2.97;;
57025;SDS011;43961;52.940;6.834;2023-11-18T12:28:19;6.65;;;3.70;;
57025;SDS011;43961;52.940;6.834;2023-11-18T12:30:56;2.97;;;2.78;;
57025;SDS011;43961;52.940;6.834;2023-11-18T12:33:26;4.95;;;3.33;;
57025;SDS011;43961;52.940;6.834;2023-11-18T12:41:48;5.60;;;3.25;;
57025;SDS011;43961;52.940;6.834;2023-11-18T12:44:37;3.92;;;3.40;;
57025;SDS011;43961;52.940;6.834;2023-11-18T12:47:17;4.22;;;3.83;;
57025;SDS011;43961;52.940;6.834;2023-11-18T12:49:47;2.08;;;1.88;;
57025;SDS011;43961;52.940;6.834;2023-11-18T12:52:20;4.22;;;3.08;;
57025;SDS011;43961;52.940;6.834;2023-11-18T12:54:46;1.95;;;1.63;;
57025;SDS011;43961;52.940;6.834;2023-11-18T12:57:22;2.90;;;2.30;;
57025;SDS011;43961;52.940;6.834;2023-11-18T12:59:56;2.20;;;1.95;;
57025;SDS011;43961;52.940;6.834;2023-11-18T13:02:22;4.53;;;2.47;;
57025;SDS011;43961;52.940;6.834;2023-11-18T13:04:51;3.60;;;3.33;;
57025;SDS011;43961;52.940;6.834;2023-11-18T13:07:19;5.88;;;4.45;;
57025;SDS011;43961;52.940;6.834;2023-11-18T13:09:46;3.97;;;2.42;;
57025;SDS011;43961;52.940;6.834;2023-11-18T13:12:13;7.50;;;2.72;;
57025;SDS011;43961;52.940;6.834;2023-11-18T13:14:45;3.33;;;2.97;;
57025;SDS011;43961;52.940;6.834;2023-11-18T13:17:11;6.78;;;3.47;;
57025;SDS011;43961;52.940;6.834;2023-11-18T13:19:38;4.00;;;3.58;;
57025;SDS011;43961;52.940;6.834;2023-11-18T13:22:08;7.45;;;3.67;;
57025;SDS011;43961;52.940;6.834;2023-11-18T13:24:34;3.80;;;2.80;;
57025;SDS011;43961;52.940;6.834;2023-11-18T13:27:10;6.85;;;2.72;;
57025;SDS011;43961;52.940;6.834;2023-11-18T13:29:44;2.03;;;1.90;;
57025;SDS011;43961;52.940;6.834;2023-11-18T13:32:10;3.70;;;3.40;;
57025;SDS011;43961;52.940;6.834;2023-11-18T13:34:37;2.67;;;2.45;;
57025;SDS011;43961;52.940;6.834;2023-11-18T13:37:08;5.70;;;3.13;;
57025;SDS011;43961;52.940;6.834;2023-11-18T13:39:35;3.55;;;3.25;;
57025;SDS011;43961;52.940;6.834;2023-11-18T13:42:19;2.28;;;2.03;;
57025;SDS011;43961;52.940;6.834;2023-11-18T13:44:47;6.60;;;4.05;;
57025;SDS011;43961;52.940;6.834;2023-11-18T13:47:13;3.25;;;2.70;;
57025;SDS011;43961;52.940;6.834;2023-11-18T13:49:42;7.32;;;3.67;;
57025;SDS011;43961;52.940;6.834;2023-11-18T13:52:09;3.28;;;3.08;;
57025;SDS011;43961;52.940;6.834;2023-11-18T13:54:40;4.63;;;3.08;;
57025;SDS011;43961;52.940;6.834;2023-11-18T13:57:10;6.85;;;4.82;;
57025;SDS011;43961;52.940;6.834;2023-11-18T13:59:37;6.20;;;4.00;;
57025;SDS011;43961;52.940;6.834;2023-11-18T14:02:04;4.00;;;2.55;;
57025;SDS011;43961;52.940;6.834;2023-11-18T14:04:30;5.78;;;3.78;;
57025;SDS011;43961;52.940;6.834;2023-11-18T14:07:01;3.42;;;3.15;;
57025;SDS011;43961;52.940;6.834;2023-11-18T14:09:31;4.88;;;3.00;;
57025;SDS011;43961;52.940;6.834;2023-11-18T14:12:01;5.72;;;3.72;;
57025;SDS011;43961;52.940;6.834;2023-11-18T14:14:29;3.60;;;3.25;;
57025;SDS011;43961;52.940;6.834;2023-11-18T14:16:54;4.85;;;3.20;;
57025;SDS011;43961;52.940;6.834;2023-11-18T14:19:32;4.57;;;2.47;;
57025;SDS011;43961;52.940;6.834;2023-11-18T14:22:00;2.47;;;2.03;;
57025;SDS011;43961;52.940;6.834;2023-11-18T14:24:26;2.97;;;2.63;;
57025;SDS011;43961;52.940;6.834;2023-11-18T14:26:54;4.13;;;3.08;;
57025;SDS011;43961;52.940;6.834;2023-11-18T14:29:21;4.32;;;3.75;;
57025;SDS011;43961;52.940;6.834;2023-11-18T14:31:48;4.55;;;2.63;;
57025;SDS011;43961;52.940;6.834;2023-11-18T14:34:13;3.88;;;2.55;;
57025;SDS011;43961;52.940;6.834;2023-11-18T14:36:39;2.83;;;2.63;;
57025;SDS011;43961;52.940;6.834;2023-11-18T14:39:06;3.67;;;1.92;;
57025;SDS011;43961;52.940;6.834;2023-11-18T14:41:35;7.68;;;4.45;;
57025;SDS011;43961;52.940;6.834;2023-11-18T14:44:01;3.38;;;3.08;;
57025;SDS011;43961;52.940;6.834;2023-11-18T14:46:29;1.67;;;1.63;;
57025;SDS011;43961;52.940;6.834;2023-11-18T14:48:56;2.28;;;2.17;;
57025;SDS011;43961;52.940;6.834;2023-11-18T14:51:22;8.07;;;2.97;;
57025;SDS011;43961;52.940;6.834;2023-11-18T14:53:48;7.47;;;3.15;;
57025;SDS011;43961;52.940;6.834;2023-11-18T14:56:14;5.45;;;3.53;;
57025;SDS011;43961;52.940;6.834;2023-11-18T14:58:40;5.15;;;3.92;;
57025;SDS011;43961;52.940;6.834;2023-11-18T15:01:06;3.47;;;3.28;;
57025;SDS011;43961;52.940;6.834;2023-11-18T15:03:32;5.28;;;3.92;;
57025;SDS011;43961;52.940;6.834;2023-11-18T15:05:58;6.05;;;3.22;;
57025;SDS011;43961;52.940;6.834;2023-11-18T15:08:24;3.40;;;3.10;;
57025;SDS011;43961;52.940;6.834;2023-11-18T15:10:50;4.93;;;4.15;;
57025;SDS011;43961;52.940;6.834;2023-11-18T15:13:16;12.85;;;4.40;;
57025;SDS011;43961;52.940;6.834;2023-11-18T15:15:44;5.10;;;3.60;;
57025;SDS011;43961;52.940;6.834;2023-11-18T15:18:13;2.70;;;2.50;;
57025;SDS011;43961;52.940;6.834;2023-11-18T15:20:42;4.53;;;3.47;;
57025;SDS011;43961;52.940;6.834;2023-11-18T15:23:17;3.03;;;2.13;;
57025;SDS011;43961;52.940;6.834;2023-11-18T15:25:44;5.25;;;3.33;;
57025;SDS011;43961;52.940;6.834;2023-11-18T15:28:09;5.57;;;2.88;;
57025;SDS011;43961;52.940;6.834;2023-11-18T15:30:39;6.05;;;3.33;;
57025;SDS011;43961;52.940;6.834;2023-11-18T15:33:05;3.78;;;3.25;;